METAR Data
IDs: Format: Raw Decoded Include TAF

Data at: 0235 UTC 25 Jan 2020

METAR for:KHNR (Harlan Muni, IA, US)
Text:KHNR 250215Z AUTO 33012KT 10SM OVC017 M01/M03 A3002 RMK AO2
Temperature: -1.0°C ( 30°F)
Dewpoint: -3.0°C ( 27°F) [RH = 86%]
Pressure (altimeter):30.02 inches Hg (1016.7 mb)
Winds:from the NNW (330 degrees) at 14 MPH (12 knots; 6.2 m/s)
Visibility:10 or more sm (16+ km)
Ceiling:1700 feet AGL
Clouds: overcast cloud deck at 1700 feet AGL
QC Flag:automated observation with no human augmentation